EFSA

Savonlinna Airport

Savonlinna, Finland
METAR EFSA 172250Z AUTO 04003KT CAVOK 22/15 Q1018
Observed Flight Rules
Jul-17 @ 22:50 UTC (31 minutes ago) Visual Flight Rules
Wind Visibility Clouds
40° at 3 knots 10,000+ meters
  • Clear skies
Temperatures Readings
Current 22°C / 72°F
Dewpoint 15°C / 59°F
Humidity 65%
Altimeter 30.06" Hg
Pressure 1018 hPa
Elevation 95
METAR EFSA 172250Z AUTO 04003KT CAVOK 22/15 Q1018
Observed Flight Rules
Jul-17 @ 22:50 UTC
(31 minutes ago)
VFR
Wind Visibility
40° at 3 knots 10,000+ meters
Clouds
  • Clear skies
Temperature Dewpoint
22°C / 72°F 15°C / 59°F
Humidity Altimeter Pressure
65% 30.06" Hg 1018 hPa